Time;durP1;ratioP1;P1;durP2;ratioP2;P2;SDS_P1;SDS_P2;PMS_P1;PMS_P2;Temp;Humidity;BMP_temperature;BMP_pressure;BME280_temperature;BME280_humidity;BME280_pressure;Samples;Min_cycle;Max_cycle;Signal;HPM_P1;HPM_P2
2023/08/20 00:00:36;;;;;;;15.40;13.80;;;29.40;43.90;;;;;;5132631;27;20403;-57
2023/08/20 00:03:12;;;;;;;17.23;15.40;;;29.40;44.10;;;;;;5132659;27;20898;-53
2023/08/20 00:05:39;;;;;;;17.23;15.53;;;29.40;43.80;;;;;;5132418;27;20434;-55
2023/08/20 00:08:05;;;;;;;18.00;16.10;;;29.40;44.00;;;;;;5131621;28;20481;-52
2023/08/20 00:10:31;;;;;;;16.40;14.80;;;29.40;43.90;;;;;;5132514;27;20967;-54
2023/08/20 00:12:57;;;;;;;15.77;14.57;;;29.40;44.10;;;;;;5132712;27;20419;-55
2023/08/20 00:15:26;;;;;;;18.00;16.20;;;29.40;44.60;;;;;;5132303;27;20421;-54
2023/08/20 00:17:53;;;;;;;18.40;14.73;;;29.40;44.60;;;;;;5132800;27;20415;-53
2023/08/20 00:20:19;;;;;;;19.07;17.27;;;29.30;44.70;;;;;;5135550;27;20420;-56
2023/08/20 00:22:46;;;;;;;16.37;14.97;;;29.40;44.60;;;;;;5136414;27;20471;-57
2023/08/20 00:25:16;;;;;;;16.77;15.40;;;29.30;44.90;;;;;;5136073;27;20470;-52
2023/08/20 00:27:43;;;;;;;16.47;15.03;;;29.40;44.80;;;;;;5136644;27;20438;-54
2023/08/20 00:30:10;;;;;;;15.37;13.97;;;29.30;45.20;;;;;;5136082;27;20497;-56
2023/08/20 00:32:36;;;;;;;17.00;15.40;;;29.30;45.50;;;;;;5136241;27;20418;-54
2023/08/20 00:35:03;;;;;;;17.30;15.77;;;29.30;45.50;;;;;;5135837;27;20449;-53
2023/08/20 00:37:29;;;;;;;17.70;16.17;;;29.30;45.60;;;;;;5136063;27;20823;-55
2023/08/20 00:39:55;;;;;;;16.50;15.10;;;29.30;45.50;;;;;;5136032;27;20773;-56
2023/08/20 00:42:21;;;;;;;17.83;16.20;;;29.30;45.70;;;;;;5134703;27;20500;-53
2023/08/20 00:44:47;;;;;;;16.90;15.43;;;29.30;45.80;;;;;;5135858;27;20667;-54
2023/08/20 00:47:14;;;;;;;16.43;15.00;;;29.30;45.80;;;;;;5135906;27;20826;-55
2023/08/20 00:49:41;;;;;;;15.90;14.50;;;29.20;45.90;;;;;;5135769;27;20175;-56
2023/08/20 00:52:09;;;;;;;15.27;13.93;;;29.20;46.20;;;;;;5134543;27;20415;-53
2023/08/20 00:54:35;;;;;;;17.77;15.30;;;29.20;46.00;;;;;;5135673;27;20404;-54
2023/08/20 00:57:02;;;;;;;17.57;15.87;;;29.20;46.10;;;;;;5134346;27;20953;-53
2023/08/20 00:59:31;;;;;;;16.77;15.37;;;29.20;46.30;;;;;;5135653;27;20456;-53
2023/08/20 01:01:57;;;;;;;18.83;16.63;;;29.10;46.30;;;;;;5135645;27;20404;-52
2023/08/20 01:04:23;;;;;;;17.30;15.80;;;29.10;46.40;;;;;;5135490;27;20770;-57
2023/08/20 01:07:03;;;;;;;16.70;15.00;;;29.10;46.40;;;;;;5135490;27;20951;-53
2023/08/20 01:09:41;;;;;;;16.60;15.20;;;29.10;46.50;;;;;;5135433;27;20861;-54
2023/08/20 01:12:08;;;;;;;15.90;14.57;;;29.10;46.70;;;;;;5135569;27;20482;-54
2023/08/20 01:14:34;;;;;;;17.17;15.70;;;29.10;46.40;;;;;;5134089;27;20425;-53
2023/08/20 01:16:59;;;;;;;15.20;13.70;;;29.10;46.30;;;;;;5135297;27;20871;-55
2023/08/20 01:19:25;;;;;;;17.57;15.50;;;29.10;46.10;;;;;;5135400;27;20178;-54
2023/08/20 01:22:03;;;;;;;16.40;14.80;;;29.10;45.90;;;;;;5135376;27;20791;-57
2023/08/20 01:24:59;;;;;;;16.40;14.90;;;29.10;46.30;;;;;;5134885;27;20408;-54
2023/08/20 01:27:58;;;;;;;16.63;15.13;;;29.10;46.20;;;;;;5135449;27;20388;-56
2023/08/20 01:30:24;;;;;;;16.00;14.60;;;29.10;46.50;;;;;;5134898;27;20470;-52
2023/08/20 01:32:53;;;;;;;15.87;14.57;;;29.10;47.00;;;;;;5134915;27;20407;-53
2023/08/20 01:35:19;;;;;;;16.20;14.90;;;29.10;47.10;;;;;;5134643;27;20458;-55
2023/08/20 01:37:45;;;;;;;17.67;16.07;;;29.10;47.20;;;;;;5134892;27;20414;-57
2023/08/20 01:40:11;;;;;;;17.27;15.67;;;29.10;47.40;;;;;;5134867;27;20400;-54
2023/08/20 01:42:38;;;;;;;15.83;14.40;;;29.10;47.20;;;;;;5134980;27;20261;-53
2023/08/20 01:45:05;;;;;;;16.40;14.87;;;29.10;47.40;;;;;;5134496;27;20505;-57
2023/08/20 01:47:31;;;;;;;16.90;15.27;;;29.10;47.50;;;;;;5134794;27;20774;-53
2023/08/20 01:49:58;;;;;;;16.80;15.40;;;29.10;47.60;;;;;;5134960;27;20503;-56
2023/08/20 01:52:24;;;;;;;17.33;15.73;;;29.00;47.80;;;;;;5134616;27;20424;-53
2023/08/20 01:54:50;;;;;;;15.37;14.07;;;29.00;47.70;;;;;;5134632;27;20400;-55
2023/08/20 01:57:16;;;;;;;18.40;16.60;;;29.00;47.70;;;;;;5134631;27;20943;-56
2023/08/20 01:59:43;;;;;;;17.57;15.87;;;29.00;47.70;;;;;;5134574;27;20408;-52
2023/08/20 02:02:09;;;;;;;16.40;15.10;;;29.00;47.70;;;;;;5134468;27;20415;-57
2023/08/20 02:04:34;;;;;;;16.70;15.00;;;28.90;47.50;;;;;;5134449;27;20403;-58
2023/08/20 02:07:00;;;;;;;16.50;15.10;;;28.90;47.30;;;;;;5134404;27;20441;-54
2023/08/20 02:09:26;;;;;;;15.70;14.40;;;28.80;47.30;;;;;;5134266;27;20532;-56
2023/08/20 02:11:52;;;;;;;17.00;15.60;;;28.80;47.30;;;;;;5134231;27;20534;-54
2023/08/20 02:14:18;;;;;;;18.30;16.57;;;28.80;47.40;;;;;;5133967;27;20479;-56
2023/08/20 02:16:46;;;;;;;17.03;15.53;;;28.80;47.60;;;;;;5134075;27;20519;-52
2023/08/20 02:19:12;;;;;;;17.67;15.87;;;28.80;47.50;;;;;;5134109;27;20431;-57
2023/08/20 02:21:38;;;;;;;16.47;14.87;;;28.80;47.60;;;;;;5134059;27;20435;-53
2023/08/20 02:24:04;;;;;;;15.43;13.93;;;28.80;47.30;;;;;;5134049;27;20430;-55
2023/08/20 02:26:30;;;;;;;16.90;15.03;;;28.20;47.30;;;;;;5133975;27;20215;-52
2023/08/20 02:28:55;;;;;;;15.37;14.00;;;28.80;47.20;;;;;;5133815;27;21070;-55
2023/08/20 02:31:21;;;;;;;16.43;14.93;;;28.80;47.10;;;;;;5133832;27;20287;-53
2023/08/20 02:33:47;;;;;;;18.10;15.80;;;28.70;46.90;;;;;;5133993;27;20174;-52
2023/08/20 02:36:13;;;;;;;17.00;15.60;;;28.80;47.10;;;;;;5133361;27;20297;-56
2023/08/20 02:38:39;;;;;;;18.13;15.83;;;28.70;46.90;;;;;;5133997;27;20453;-54
2023/08/20 02:41:05;;;;;;;16.53;15.03;;;28.70;46.90;;;;;;5133357;27;20191;-55
2023/08/20 02:43:30;;;;;;;15.73;14.40;;;28.70;47.30;;;;;;5133458;27;20218;-55
2023/08/20 02:45:56;;;;;;;17.43;16.03;;;28.80;47.10;;;;;;5133250;27;20190;-52
2023/08/20 02:48:26;;;;;;;17.27;15.40;;;28.70;47.10;;;;;;5133585;27;20400;-52
2023/08/20 02:50:56;;;;;;;16.57;15.27;;;28.70;47.40;;;;;;5133489;27;21114;-54
2023/08/20 02:53:22;;;;;;;16.17;14.63;;;28.70;47.60;;;;;;5133561;27;20393;-53
2023/08/20 02:55:48;;;;;;;18.43;15.70;;;28.70;47.80;;;;;;5133280;27;20782;-53
2023/08/20 02:58:14;;;;;;;18.90;17.20;;;28.70;47.80;;;;;;5133654;27;20918;-55
2023/08/20 03:00:40;;;;;;;18.40;16.70;;;28.70;47.90;;;;;;5133409;27;20172;-55
2023/08/20 03:03:08;;;;;;;17.40;15.80;;;28.70;48.10;;;;;;5133625;27;20408;-53
2023/08/20 03:05:34;;;;;;;17.10;15.33;;;28.70;47.90;;;;;;5133337;27;21000;-56
2023/08/20 03:08:00;;;;;;;19.77;18.00;;;28.70;48.00;;;;;;5133593;27;20453;-56
2023/08/20 03:10:27;;;;;;;19.73;17.97;;;28.60;48.30;;;;;;5133149;27;20448;-53
2023/08/20 03:12:53;;;;;;;19.23;16.77;;;28.60;48.60;;;;;;5131912;27;20404;-56
2023/08/20 03:15:19;;;;;;;17.33;15.83;;;28.60;48.30;;;;;;5132936;27;20420;-54
2023/08/20 03:17:45;;;;;;;19.37;17.70;;;28.60;48.20;;;;;;5133195;27;20254;-54
2023/08/20 03:20:11;;;;;;;20.37;18.37;;;28.60;48.50;;;;;;5133087;27;20179;-56
2023/08/20 03:22:38;;;;;;;20.20;18.10;;;28.60;48.40;;;;;;5133107;27;20408;-56
2023/08/20 03:25:05;;;;;;;19.20;17.60;;;28.60;48.30;;;;;;5131534;28;20953;-53
2023/08/20 03:27:31;;;;;;;19.63;17.90;;;28.60;48.50;;;;;;5132956;27;20416;-54
2023/08/20 03:29:57;;;;;;;19.60;17.67;;;28.50;48.70;;;;;;5132906;27;20977;-53
2023/08/20 03:32:23;;;;;;;17.70;16.20;;;28.60;48.50;;;;;;5132975;28;20429;-54
2023/08/20 03:34:49;;;;;;;19.47;17.57;;;28.50;48.60;;;;;;5132685;27;20194;-56
2023/08/20 03:37:15;;;;;;;19.73;17.77;;;28.50;48.50;;;;;;5132921;27;20401;-54
2023/08/20 03:39:41;;;;;;;20.27;18.30;;;28.40;48.60;;;;;;5132966;27;20772;-53
2023/08/20 03:42:07;;;;;;;17.30;15.80;;;28.40;48.80;;;;;;5133125;27;20403;-56
2023/08/20 03:44:33;;;;;;;18.70;17.10;;;28.40;49.00;;;;;;5132704;27;20281;-53
2023/08/20 03:46:58;;;;;;;19.10;17.03;;;28.50;48.80;;;;;;5132777;27;20420;-55
2023/08/20 03:49:24;;;;;;;18.83;17.10;;;28.40;48.70;;;;;;5132850;28;20259;-55
2023/08/20 03:51:50;;;;;;;17.67;16.07;;;28.40;48.70;;;;;;5132696;27;20198;-52
2023/08/20 03:54:16;;;;;;;20.93;16.77;;;28.40;48.50;;;;;;5135832;27;20500;-55
2023/08/20 03:56:42;;;;;;;19.10;17.10;;;28.40;48.70;;;;;;5137105;27;20551;-55
2023/08/20 03:59:08;;;;;;;17.53;16.03;;;28.30;48.30;;;;;;5137067;27;20562;-53
2023/08/20 04:01:36;;;;;;;17.90;16.17;;;28.30;48.40;;;;;;5136808;27;20202;-55
2023/08/20 04:04:05;;;;;;;16.57;15.07;;;28.30;48.70;;;;;;5137114;27;20440;-52
2023/08/20 04:06:31;;;;;;;17.93;16.10;;;28.30;48.80;;;;;;5136500;27;20428;-53
2023/08/20 04:08:57;;;;;;;18.07;16.37;;;28.30;49.10;;;;;;5136671;27;20410;-56
2023/08/20 04:11:23;;;;;;;18.30;16.50;;;28.40;49.10;;;;;;5136540;27;20273;-52
2023/08/20 04:13:49;;;;;;;17.17;15.70;;;28.40;49.10;;;;;;5136613;27;20413;-58
2023/08/20 04:16:15;;;;;;;18.37;16.60;;;28.40;49.00;;;;;;5136487;27;20244;-55
2023/08/20 04:18:40;;;;;;;18.07;16.33;;;28.40;49.10;;;;;;5136568;27;20163;-54
2023/08/20 04:21:09;;;;;;;16.30;14.87;;;28.40;49.10;;;;;;5136395;27;20418;-53
2023/08/20 04:23:35;;;;;;;18.77;17.17;;;28.30;48.70;;;;;;5136359;27;20170;-58
2023/08/20 04:26:01;;;;;;;18.27;16.57;;;28.30;48.80;;;;;;5136188;27;20765;-53
2023/08/20 04:28:26;;;;;;;17.80;15.97;;;28.20;49.20;;;;;;5136549;27;20177;-54
2023/08/20 04:30:54;;;;;;;17.73;16.13;;;28.20;49.50;;;;;;5136199;27;20569;-57
2023/08/20 04:33:20;;;;;;;18.00;16.50;;;28.20;49.50;;;;;;5136288;27;20225;-53
2023/08/20 04:35:46;;;;;;;17.80;16.30;;;28.20;49.50;;;;;;5135838;27;20585;-53
2023/08/20 04:38:12;;;;;;;18.30;16.60;;;28.20;49.50;;;;;;5134866;27;20460;-57
2023/08/20 04:40:38;;;;;;;18.43;16.93;;;28.20;49.70;;;;;;5134793;27;20414;-57
2023/08/20 04:43:04;;;;;;;20.30;18.30;;;28.30;49.60;;;;;;5136215;27;20219;-52
2023/08/20 04:45:30;;;;;;;17.87;16.27;;;28.20;49.50;;;;;;5135678;27;20691;-59
2023/08/20 04:47:55;;;;;;;20.60;18.57;;;28.20;49.50;;;;;;5135990;27;20395;-57
2023/08/20 04:50:21;;;;;;;18.67;17.07;;;28.20;49.50;;;;;;5135803;27;20190;-53
2023/08/20 04:52:47;;;;;;;18.33;16.73;;;28.20;49.60;;;;;;5135957;27;20159;-57
2023/08/20 04:55:15;;;;;;;17.60;16.20;;;28.20;49.80;;;;;;5135902;27;20278;-55
2023/08/20 04:57:41;;;;;;;19.20;17.50;;;28.20;50.00;;;;;;5135739;27;20215;-54
2023/08/20 05:00:09;;;;;;;16.93;15.30;;;28.20;50.00;;;;;;5135726;27;20435;-56
2023/08/20 05:02:35;;;;;;;16.00;14.50;;;28.20;50.00;;;;;;5135892;27;20403;-53
2023/08/20 05:05:02;;;;;;;16.10;14.60;;;28.20;50.10;;;;;;5134594;27;20410;-53
2023/08/20 05:07:28;;;;;;;13.50;12.30;;;28.30;50.30;;;;;;5135809;27;20735;-56
2023/08/20 05:09:54;;;;;;;14.60;13.30;;;28.20;50.40;;;;;;5135704;27;20905;-55
2023/08/20 05:12:20;;;;;;;15.87;13.57;;;28.30;50.60;;;;;;5135485;27;20411;-53
2023/08/20 05:14:46;;;;;;;13.67;12.47;;;28.30;50.40;;;;;;5135483;27;20392;-53
2023/08/20 05:17:11;;;;;;;15.07;13.63;;;28.40;50.40;;;;;;5135700;27;20167;-56
2023/08/20 05:19:37;;;;;;;13.60;12.30;;;28.40;50.90;;;;;;5135667;27;20170;-58
2023/08/20 05:22:03;;;;;;;14.20;12.90;;;28.50;50.10;;;;;;5135233;27;20185;-53
2023/08/20 05:24:29;;;;;;;13.27;12.17;;;28.60;50.10;;;;;;5135018;27;20175;-56
2023/08/20 05:27:24;;;;;;;13.27;11.97;;;28.60;50.00;;;;;;5135319;27;20432;-58
2023/08/20 05:29:50;;;;;;;18.20;12.20;;;28.70;49.10;;;;;;5112125;28;20217;-54
2023/08/20 05:32:16;;;;;;;12.40;11.23;;;28.70;49.30;;;;;;5112178;28;20432;-55
2023/08/20 05:34:42;;;;;;;12.37;11.17;;;28.80;49.30;;;;;;5111851;28;20647;-53
2023/08/20 05:37:08;;;;;;;18.30;9.47;;;28.80;48.90;;;;;;5112008;28;20696;-53
2023/08/20 05:39:41;;;;;;;15.10;11.87;;;28.90;49.10;;;;;;5112033;28;20436;-57
2023/08/20 05:42:07;;;;;;;11.50;10.50;;;28.90;48.80;;;;;;5111970;28;20510;-51
2023/08/20 05:44:33;;;;;;;12.00;10.70;;;28.90;49.10;;;;;;5111708;28;20832;-57
2023/08/20 05:47:00;;;;;;;12.67;11.27;;;29.00;49.50;;;;;;5111675;28;20636;-54
2023/08/20 05:49:27;;;;;;;12.90;10.10;;;29.00;49.40;;;;;;5111822;28;20175;-53
2023/08/20 05:51:53;;;;;;;13.50;11.30;;;29.10;49.00;;;;;;5111684;28;20445;-56
2023/08/20 05:54:19;;;;;;;13.93;10.07;;;29.10;48.90;;;;;;5111501;28;20414;-53
2023/08/20 05:56:44;;;;;;;12.53;10.17;;;29.10;48.50;;;;;;5111636;28;20255;-57
2023/08/20 05:59:10;;;;;;;11.60;10.50;;;29.00;48.70;;;;;;5111632;28;20498;-53
2023/08/20 06:01:36;;;;;;;12.63;11.50;;;29.10;49.10;;;;;;5111467;28;20182;-57
2023/08/20 06:04:02;;;;;;;11.57;10.57;;;29.10;48.80;;;;;;5111483;28;20308;-53
2023/08/20 06:06:28;;;;;;;15.70;10.77;;;29.10;49.00;;;;;;5125114;27;20203;-54
2023/08/20 06:08:54;;;;;;;12.27;10.83;;;29.20;48.90;;;;;;5134413;27;20790;-56
2023/08/20 06:11:20;;;;;;;10.50;9.50;;;29.20;48.50;;;;;;5134284;27;20297;-56
2023/08/20 06:13:47;;;;;;;11.80;10.37;;;29.20;48.90;;;;;;5134372;27;20407;-53
2023/08/20 06:16:12;;;;;;;11.90;10.80;;;29.20;48.90;;;;;;5132972;27;20515;-54
2023/08/20 06:18:38;;;;;;;13.03;10.57;;;29.30;49.00;;;;;;5132813;27;20499;-53
2023/08/20 06:21:04;;;;;;;11.90;10.77;;;29.30;48.80;;;;;;5134109;27;20427;-53
2023/08/20 06:23:30;;;;;;;13.83;11.70;;;29.40;48.80;;;;;;5134337;27;20183;-53
2023/08/20 06:25:55;;;;;;;15.43;11.27;;;29.50;49.10;;;;;;5133905;27;20601;-57
2023/08/20 06:28:21;;;;;;;11.57;10.33;;;29.50;48.70;;;;;;5134004;27;20221;-54
2023/08/20 06:30:47;;;;;;;13.13;11.10;;;29.60;48.60;;;;;;5133753;27;20190;-56
2023/08/20 06:33:13;;;;;;;11.77;10.43;;;29.60;47.90;;;;;;5133918;27;20401;-53
2023/08/20 06:35:39;;;;;;;13.23;11.90;;;29.60;48.10;;;;;;5133561;27;20447;-53
2023/08/20 06:38:05;;;;;;;11.97;10.20;;;29.60;47.90;;;;;;5133906;27;20163;-58
2023/08/20 06:40:31;;;;;;;12.37;11.17;;;29.60;47.60;;;;;;5134023;27;20493;-53
2023/08/20 06:42:57;;;;;;;11.57;10.23;;;29.60;47.60;;;;;;5133828;27;20831;-51
2023/08/20 06:45:23;;;;;;;11.10;10.10;;;29.50;47.50;;;;;;5133450;27;20196;-53
2023/08/20 06:47:49;;;;;;;10.57;9.57;;;29.50;47.70;;;;;;5133605;27;20178;-57
2023/08/20 06:50:14;;;;;;;13.53;12.17;;;29.50;47.90;;;;;;5133759;27;20285;-52
2023/08/20 06:52:40;;;;;;;13.50;11.53;;;29.50;48.10;;;;;;5133568;27;20641;-53
2023/08/20 06:55:06;;;;;;;11.57;10.47;;;29.50;48.40;;;;;;5133335;27;20420;-59
2023/08/20 06:57:32;;;;;;;13.07;11.77;;;29.50;48.10;;;;;;5133571;27;20901;-53
2023/08/20 06:59:58;;;;;;;15.83;11.40;;;29.40;48.20;;;;;;5133343;27;20401;-53
2023/08/20 07:02:24;;;;;;;12.90;11.70;;;29.50;48.10;;;;;;5133586;27;20688;-56
2023/08/20 07:04:50;;;;;;;12.83;10.63;;;29.40;48.10;;;;;;5133131;27;20175;-54
2023/08/20 07:07:16;;;;;;;13.07;10.47;;;29.50;48.00;;;;;;5133440;27;20224;-52
2023/08/20 07:09:42;;;;;;;12.00;10.80;;;29.50;48.40;;;;;;5133295;27;20708;-56
2023/08/20 07:12:07;;;;;;;11.17;10.13;;;29.60;48.50;;;;;;5133547;27;20538;-54
2023/08/20 07:14:33;;;;;;;12.33;11.03;;;29.70;48.50;;;;;;5132080;27;20459;-56
2023/08/20 07:17:00;;;;;;;13.17;11.87;;;29.80;48.60;;;;;;5133158;27;20529;-53
2023/08/20 07:19:26;;;;;;;13.23;12.03;;;29.80;48.40;;;;;;5133168;27;20266;-55
2023/08/20 07:21:52;;;;;;;11.53;10.43;;;29.90;48.00;;;;;;5133143;27;20459;-55
2023/08/20 07:24:18;;;;;;;12.00;11.10;;;29.90;48.40;;;;;;5133030;27;20407;-55
2023/08/20 07:26:43;;;;;;;13.27;11.97;;;29.90;47.80;;;;;;5133313;27;20247;-54
2023/08/20 07:29:09;;;;;;;13.60;11.83;;;29.90;47.80;;;;;;5132679;27;20421;-54
2023/08/20 07:31:35;;;;;;;12.27;11.17;;;29.90;47.40;;;;;;5132943;27;20456;-56
2023/08/20 07:34:03;;;;;;;11.50;10.50;;;29.90;47.20;;;;;;5132991;27;20408;-55
2023/08/20 07:36:29;;;;;;;11.70;10.60;;;29.90;47.40;;;;;;5132892;27;20607;-54
2023/08/20 07:38:55;;;;;;;14.83;11.43;;;30.00;48.20;;;;;;5132980;27;20436;-56
2023/08/20 07:41:21;;;;;;;12.70;11.60;;;30.00;48.60;;;;;;5132793;28;20814;-53
2023/08/20 07:43:48;;;;;;;13.50;11.83;;;30.10;48.20;;;;;;5133112;27;20415;-56
2023/08/20 07:46:15;;;;;;;13.13;11.73;;;30.10;48.20;;;;;;5132654;27;21014;-58
2023/08/20 07:48:41;;;;;;;13.70;11.40;;;30.20;49.10;;;;;;5132754;27;20414;-53
2023/08/20 07:51:07;;;;;;;13.17;11.87;;;30.30;48.20;;;;;;5132880;27;20448;-54
2023/08/20 07:53:34;;;;;;;12.40;11.30;;;30.40;47.90;;;;;;5133052;27;20835;-56
2023/08/20 07:56:00;;;;;;;10.80;9.90;;;30.50;48.00;;;;;;5132518;27;20189;-54
2023/08/20 07:58:27;;;;;;;12.70;11.60;;;30.60;47.80;;;;;;5131487;28;20422;-55
2023/08/20 08:00:54;;;;;;;15.43;12.53;;;30.70;47.40;;;;;;5132827;27;20408;-56
2023/08/20 08:03:20;;;;;;;16.83;11.50;;;30.70;46.80;;;;;;5133016;27;20404;-54
2023/08/20 08:05:50;;;;;;;12.70;11.40;;;30.80;46.60;;;;;;5132726;28;20835;-53
2023/08/20 08:08:19;;;;;;;12.33;11.23;;;30.90;47.30;;;;;;5132963;27;20403;-58
2023/08/20 08:10:46;;;;;;;12.53;11.40;;;30.90;45.90;;;;;;5132404;28;20435;-53
2023/08/20 08:13:18;;;;;;;10.80;9.80;;;30.90;46.10;;;;;;5132620;27;20400;-52
2023/08/20 08:15:44;;;;;;;12.17;9.93;;;31.00;46.60;;;;;;5132611;27;20438;-55
2023/08/20 08:18:10;;;;;;;12.30;11.20;;;31.00;46.80;;;;;;5132536;27;20404;-57
2023/08/20 08:20:36;;;;;;;12.27;11.07;;;31.00;45.90;;;;;;5132602;27;20174;-53
2023/08/20 08:23:02;;;;;;;18.00;12.37;;;31.00;46.40;;;;;;5132460;27;20505;-57
2023/08/20 08:25:28;;;;;;;11.73;10.53;;;31.00;46.60;;;;;;5132124;28;20435;-56
2023/08/20 08:27:54;;;;;;;11.57;10.57;;;31.10;47.00;;;;;;5132556;27;20491;-55
2023/08/20 08:30:20;;;;;;;11.40;10.20;;;31.20;47.20;;;;;;5132481;27;20534;-54
2023/08/20 08:32:46;;;;;;;10.97;10.00;;;31.30;47.60;;;;;;5132567;27;20929;-54
2023/08/20 08:35:12;;;;;;;11.40;10.30;;;31.40;47.60;;;;;;5132130;28;20531;-57
2023/08/20 08:37:38;;;;;;;11.20;10.10;;;31.60;46.90;;;;;;5132459;27;20166;-54
2023/08/20 08:40:05;;;;;;;11.00;10.07;;;31.70;46.00;;;;;;5133493;27;20243;-53
2023/08/20 08:42:32;;;;;;;13.00;11.27;;;31.80;46.80;;;;;;5136402;27;20423;-56
2023/08/20 08:45:00;;;;;;;13.93;10.13;;;31.80;46.00;;;;;;5135765;27;20460;-53
2023/08/20 08:47:26;;;;;;;11.37;10.30;;;31.80;44.10;;;;;;5136127;27;20408;-55
2023/08/20 08:49:56;;;;;;;11.90;10.80;;;31.90;43.90;;;;;;5135887;27;20414;-57
2023/08/20 08:52:22;;;;;;;12.07;10.27;;;31.90;44.70;;;;;;5135847;27;20423;-53
2023/08/20 08:54:49;;;;;;;12.80;11.50;;;31.90;44.70;;;;;;5135753;27;20416;-54
2023/08/20 08:57:15;;;;;;;13.17;11.83;;;31.80;45.50;;;;;;5135842;27;20432;-54
2023/08/20 08:59:42;;;;;;;12.40;11.20;;;31.80;44.30;;;;;;5135701;27;20978;-56
2023/08/20 09:02:12;;;;;;;13.80;12.30;;;31.70;44.90;;;;;;5135770;27;20418;-58
2023/08/20 09:04:42;;;;;;;13.90;12.53;;;31.70;44.70;;;;;;5135580;27;20901;-57
2023/08/20 09:07:15;;;;;;;15.77;10.83;;;31.70;46.20;;;;;;5135546;27;20423;-52
2023/08/20 09:09:47;;;;;;;13.50;12.30;;;31.80;46.30;;;;;;5135819;27;20507;-56
2023/08/20 09:12:20;;;;;;;12.83;11.70;;;31.80;46.10;;;;;;5135500;27;20507;-52
2023/08/20 09:14:50;;;;;;;14.03;12.83;;;31.80;45.90;;;;;;5135270;27;20411;-56
2023/08/20 09:17:17;;;;;;;14.87;13.57;;;31.70;46.00;;;;;;5129566;27;20524;-54
2023/08/20 09:19:44;;;;;;;13.93;12.73;;;31.70;46.70;;;;;;5135515;27;20411;-56
2023/08/20 09:22:14;;;;;;;13.27;12.07;;;31.80;46.50;;;;;;5135349;27;20420;-57
2023/08/20 09:24:52;;;;;;;14.50;13.10;;;31.90;46.70;;;;;;5135294;27;20400;-54
2023/08/20 09:27:18;;;;;;;14.27;13.07;;;32.00;46.60;;;;;;5135248;27;20408;-58
2023/08/20 09:29:57;;;;;;;14.10;12.90;;;32.00;46.70;;;;;;5135151;27;20404;-54
2023/08/20 09:32:28;;;;;;;14.30;12.97;;;32.10;46.20;;;;;;5135396;27;20178;-55
2023/08/20 09:34:55;;;;;;;15.17;13.37;;;32.10;45.90;;;;;;5134779;27;20416;-57
2023/08/20 09:37:22;;;;;;;14.70;13.07;;;32.10;45.80;;;;;;5135079;27;20399;-54
2023/08/20 09:39:48;;;;;;;16.70;12.77;;;32.20;46.10;;;;;;5135009;27;20397;-53
2023/08/20 09:42:15;;;;;;;13.80;12.43;;;32.20;45.70;;;;;;5133584;27;20505;-55
2023/08/20 09:44:44;;;;;;;15.40;14.00;;;32.30;46.00;;;;;;5134635;27;20418;-54
2023/08/20 09:47:14;;;;;;;14.93;13.43;;;32.30;45.90;;;;;;5135054;27;20943;-52
2023/08/20 09:49:42;;;;;;;14.53;13.03;;;32.40;45.90;;;;;;5134823;27;20407;-58
2023/08/20 09:52:10;;;;;;;14.50;13.20;;;32.60;45.30;;;;;;5134640;27;20471;-57
2023/08/20 09:55:02;;;;;;;14.03;12.73;;;32.60;45.40;;;;;;5134484;27;20913;-55
2023/08/20 09:57:36;;;;;;;12.63;11.50;;;32.70;45.40;;;;;;5134819;27;20406;-54
2023/08/20 10:00:05;;;;;;;13.90;12.43;;;32.80;44.80;;;;;;5134543;27;20392;-52
2023/08/20 10:02:33;;;;;;;13.50;12.17;;;32.80;44.40;;;;;;5134426;27;20901;-59
2023/08/20 10:05:02;;;;;;;13.47;12.27;;;32.70;44.00;;;;;;5134210;27;20577;-57
2023/08/20 10:07:32;;;;;;;13.83;12.53;;;32.70;43.90;;;;;;5134573;27;20810;-54
2023/08/20 10:10:00;;;;;;;13.77;12.37;;;32.60;44.10;;;;;;5134393;27;20400;-57
2023/08/20 10:12:28;;;;;;;13.83;12.60;;;32.70;44.40;;;;;;5134228;27;20411;-55
2023/08/20 10:14:55;;;;;;;13.07;11.87;;;32.60;44.20;;;;;;5134018;27;20912;-52
2023/08/20 10:17:23;;;;;;;14.00;12.80;;;32.70;45.20;;;;;;5134147;27;20487;-58
2023/08/20 10:19:49;;;;;;;13.43;12.20;;;32.70;44.50;;;;;;5134130;27;20400;-56
2023/08/20 10:22:15;;;;;;;14.10;12.60;;;32.80;43.80;;;;;;5134128;27;20408;-53
2023/08/20 10:24:52;;;;;;;13.10;12.00;;;32.70;44.60;;;;;;5133875;27;20460;-53
2023/08/20 10:27:28;;;;;;;12.60;11.47;;;32.80;43.90;;;;;;5133131;27;20158;-58
2023/08/20 10:29:55;;;;;;;14.27;13.07;;;32.80;44.50;;;;;;5133988;27;20407;-53
2023/08/20 10:32:41;;;;;;;12.57;11.67;;;32.80;42.30;;;;;;5133887;27;20396;-58
2023/08/20 10:35:08;;;;;;;12.53;11.43;;;32.80;43.20;;;;;;5133451;27;20447;-56
2023/08/20 10:37:34;;;;;;;12.87;11.60;;;33.30;44.80;;;;;;5133870;27;20403;-53
2023/08/20 10:40:00;;;;;;;13.00;10.90;;;32.90;44.30;;;;;;5133809;27;20441;-57
2023/08/20 10:42:27;;;;;;;11.73;10.63;;;33.00;45.00;;;;;;5134044;27;20482;-54
2023/08/20 10:45:05;;;;;;;11.00;10.00;;;33.10;44.70;;;;;;5133444;27;20311;-58
2023/08/20 10:47:44;;;;;;;12.30;11.00;;;33.20;44.10;;;;;;5133925;27;20480;-54
2023/08/20 10:50:16;;;;;;;10.70;9.70;;;33.20;43.60;;;;;;5133596;27;20403;-55
2023/08/20 10:52:51;;;;;;;11.53;10.43;;;33.30;41.80;;;;;;5133654;27;20392;-54
2023/08/20 10:55:23;;;;;;;11.73;10.63;;;33.30;43.20;;;;;;5133260;27;20424;-54
2023/08/20 10:57:56;;;;;;;11.40;10.50;;;33.40;42.20;;;;;;5133749;27;20490;-58
2023/08/20 11:00:22;;;;;;;11.77;10.07;;;33.30;42.80;;;;;;5133429;27;20785;-59
2023/08/20 11:02:49;;;;;;;10.80;9.80;;;33.40;42.80;;;;;;5132981;27;20396;-54
2023/08/20 11:05:21;;;;;;;14.17;9.77;;;33.40;42.30;;;;;;5133155;27;20903;-57
2023/08/20 11:07:48;;;;;;;10.33;9.33;;;33.40;41.60;;;;;;5133226;27;20499;-52
2023/08/20 11:10:17;;;;;;;11.17;9.07;;;33.40;41.00;;;;;;5133237;27;20404;-57
2023/08/20 11:12:45;;;;;;;10.40;9.40;;;33.60;42.60;;;;;;5133271;27;20728;-54
2023/08/20 11:15:11;;;;;;;10.50;7.80;;;33.60;42.80;;;;;;5133114;27;20815;-56
2023/08/20 11:17:47;;;;;;;11.00;10.00;;;33.70;40.70;;;;;;5133221;27;20920;-56
2023/08/20 11:20:14;;;;;;;9.83;8.50;;;33.70;40.30;;;;;;5133372;27;20403;-53
2023/08/20 11:22:41;;;;;;;9.53;8.60;;;33.80;41.10;;;;;;5133008;27;20881;-56
2023/08/20 11:25:16;;;;;;;10.23;9.23;;;33.80;40.00;;;;;;5132699;27;20787;-56
2023/08/20 11:27:43;;;;;;;8.30;7.60;;;33.90;40.00;;;;;;5133298;27;20770;-53
2023/08/20 11:30:13;;;;;;;10.07;8.73;;;33.90;39.90;;;;;;5133045;27;20400;-56
2023/08/20 11:32:39;;;;;;;9.03;8.17;;;34.00;39.60;;;;;;5132903;27;20400;-53
2023/08/20 11:35:07;;;;;;;9.10;8.30;;;34.00;38.30;;;;;;5132538;27;20435;-54
2023/08/20 11:37:33;;;;;;;8.77;8.00;;;34.00;40.00;;;;;;5133026;27;20404;-56
2023/08/20 11:39:59;;;;;;;7.67;7.00;;;34.00;39.80;;;;;;5132792;28;20766;-55
2023/08/20 11:42:25;;;;;;;7.40;6.70;;;34.10;39.00;;;;;;5132939;27;20395;-53
2023/08/20 11:44:55;;;;;;;6.00;5.40;;;34.20;39.80;;;;;;5132681;27;20226;-55
2023/08/20 11:47:20;;;;;;;6.70;6.10;;;34.30;38.30;;;;;;5132718;28;20405;-57
2023/08/20 11:49:46;;;;;;;6.03;5.53;;;34.30;37.00;;;;;;5132836;27;20396;-54
2023/08/20 11:52:17;;;;;;;8.03;6.07;;;34.40;37.40;;;;;;5132787;28;20202;-53
2023/08/20 11:54:43;;;;;;;6.50;6.00;;;34.50;37.10;;;;;;5131348;28;20198;-57
2023/08/20 11:57:08;;;;;;;6.30;5.70;;;34.60;37.90;;;;;;5132662;27;20417;-54
2023/08/20 11:59:34;;;;;;;7.73;6.00;;;34.70;35.90;;;;;;5132807;28;20400;-52
2023/08/20 12:02:05;;;;;;;7.63;6.90;;;34.80;36.30;;;;;;5132950;28;20170;-55
2023/08/20 12:04:31;;;;;;;8.80;8.00;;;34.80;37.40;;;;;;5132505;27;20408;-52
2023/08/20 12:07:09;;;;;;;7.53;6.73;;;34.90;38.10;;;;;;5132786;27;20420;-52
2023/08/20 12:09:35;;;;;;;8.20;7.37;;;35.20;38.10;;;;;;5132641;27;20406;-55
2023/08/20 12:12:02;;;;;;;8.37;6.77;;;35.10;36.70;;;;;;5132553;27;20439;-53
2023/08/20 12:14:28;;;;;;;8.27;7.27;;;35.10;37.60;;;;;;5132529;27;20452;-56
2023/08/20 12:16:55;;;;;;;8.00;7.23;;;35.20;37.60;;;;;;5136580;27;20422;-57
2023/08/20 12:19:21;;;;;;;8.30;7.60;;;35.20;37.70;;;;;;5136631;27;20400;-54
2023/08/20 12:21:47;;;;;;;8.43;7.70;;;35.20;37.40;;;;;;5136729;27;20400;-54
2023/08/20 12:24:13;;;;;;;8.47;7.57;;;35.30;37.90;;;;;;5136315;27;20839;-56
2023/08/20 12:26:40;;;;;;;8.40;7.30;;;35.40;38.10;;;;;;5136388;27;20399;-56
2023/08/20 12:29:06;;;;;;;8.27;7.47;;;35.50;36.30;;;;;;5136587;27;20410;-52